Time;durP1;ratioP1;P1;durP2;ratioP2;P2;SDS_P1;SDS_P2;PMS_P1;PMS_P2;Temp;Humidity;BMP_temperature;BMP_pressure;BME280_temperature;BME280_humidity;BME280_pressure;Samples;Min_cycle;Max_cycle;Signal;HPM_P1;HPM_P2
2022/05/01 00:01:41;;;;;;;20.77;7.55;;;;;;;6.25;39.90;99963.19;5069565;28;20458;-82
2022/05/01 00:04:08;;;;;;;25.27;7.82;;;;;;;6.18;39.95;99967.94;5073606;28;20464;-81
2022/05/01 00:06:35;;;;;;;19.75;7.70;;;;;;;6.34;39.44;99964.44;5051778;28;20071;-81
2022/05/01 00:09:03;;;;;;;22.38;7.72;;;;;;;6.14;40.20;99969.47;5050745;28;20044;-82
2022/05/01 00:11:30;;;;;;;25.77;7.30;;;;;;;5.90;40.51;99975.75;5092520;28;20052;-81
2022/05/01 00:13:57;;;;;;;26.80;8.50;;;;;;;5.95;40.48;99972.34;5072462;28;20081;-81
2022/05/01 00:16:24;;;;;;;17.15;7.45;;;;;;;5.89;40.63;99976.84;5086383;28;20050;-80
2022/05/01 00:18:51;;;;;;;27.00;8.65;;;;;;;5.88;40.61;99975.19;5065915;28;20084;-80
2022/05/01 00:21:17;;;;;;;15.57;7.57;;;;;;;5.80;40.73;99976.38;5071665;28;20060;-80
2022/05/01 00:23:44;;;;;;;17.80;7.22;;;;;;;5.87;40.67;99969.97;5053439;28;20139;-80
2022/05/01 00:26:11;;;;;;;20.25;7.75;;;;;;;5.98;40.37;99969.13;5057154;28;20150;-82
2022/05/01 00:28:39;;;;;;;22.08;7.43;;;;;;;5.98;40.50;99966.44;5074637;28;20053;-80
2022/05/01 00:31:07;;;;;;;23.52;8.05;;;;;;;6.17;40.11;99974.41;5082655;28;20635;-80
2022/05/01 00:36:26;;;;;;;19.10;7.57;;;;;;;6.22;39.80;99971.78;5079676;28;20201;-80
2022/05/01 00:38:53;;;;;;;20.88;7.28;;;;;;;6.28;39.69;99972.72;5067157;28;20048;-79
2022/05/01 00:41:23;;;;;;;23.67;7.10;;;;;;;6.29;39.57;99969.78;5082989;28;20139;-80
2022/05/01 00:44:03;;;;;;;22.63;6.93;;;;;;;6.34;39.33;99972.59;5056242;28;20074;-78
2022/05/01 00:46:30;;;;;;;17.73;6.93;;;;;;;6.35;39.20;99978.84;5067478;28;20384;-78
2022/05/01 00:48:57;;;;;;;16.15;7.43;;;;;;;6.30;39.25;99973.31;5089071;28;20036;-78
2022/05/01 00:51:24;;;;;;;18.23;7.05;;;;;;;6.34;38.94;99972.59;5040858;28;20063;-78
2022/05/01 00:53:51;;;;;;;20.98;6.03;;;;;;;6.36;38.99;99981.31;5061932;28;20121;-80
2022/05/01 00:56:18;;;;;;;14.45;5.93;;;;;;;6.34;38.95;99977.22;5077631;28;20568;-80
2022/05/01 00:58:45;;;;;;;18.70;5.95;;;;;;;6.33;38.81;99978.28;5052076;28;20423;-81
2022/05/01 01:01:13;;;;;;;20.60;6.85;;;;;;;6.31;38.98;99978.50;5088010;28;20156;-80
2022/05/01 01:03:39;;;;;;;16.35;6.47;;;;;;;6.32;38.84;99966.56;5080913;28;20287;-81
2022/05/01 01:06:06;;;;;;;15.02;6.07;;;;;;;6.34;38.97;99983.44;5089780;28;20050;-80
2022/05/01 01:08:32;;;;;;;21.13;6.30;;;;;;;6.26;39.10;99981.13;5089770;28;20044;-81
2022/05/01 01:10:58;;;;;;;15.77;6.20;;;;;;;6.24;39.12;99981.38;5091092;28;20437;-80
2022/05/01 01:13:26;;;;;;;14.20;6.43;;;;;;;6.21;39.45;99987.28;5031720;28;20060;-79
2022/05/01 01:15:56;;;;;;;17.33;7.20;;;;;;;6.08;39.64;99982.94;5071713;28;20096;-81
2022/05/01 01:18:24;;;;;;;18.75;7.20;;;;;;;6.09;39.47;99991.91;5055035;28;20047;-79
2022/05/01 01:20:52;;;;;;;;;;;;;;;6.07;39.74;99984.00;5052633;28;20072;-83
2022/05/01 01:23:18;;;;;;;24.55;7.22;;;;;;;6.12;39.73;99987.91;5028369;28;19924;-78
2022/05/01 01:25:46;;;;;;;20.70;7.60;;;;;;;6.10;39.74;99983.53;5052612;28;20147;-83
2022/05/01 01:28:14;;;;;;;20.13;7.18;;;;;;;6.02;40.03;99983.91;5061352;28;20039;-83
2022/05/01 01:33:29;;;;;;;16.58;6.70;;;;;;;6.15;39.40;99979.28;5069824;28;20048;-83
2022/05/01 01:36:01;;;;;;;16.20;5.68;;;;;;;6.02;39.47;99966.81;5073109;28;20527;-83
2022/05/01 01:38:27;;;;;;;18.52;6.10;;;;;;;6.15;39.40;99984.69;5068441;28;20048;-82
2022/05/01 01:40:55;;;;;;;12.60;5.45;;;;;;;6.16;39.31;99976.28;5080769;28;20123;-83
2022/05/01 01:43:24;;;;;;;17.77;6.00;;;;;;;6.18;38.80;99979.63;5053150;28;20044;-83
2022/05/01 01:45:51;;;;;;;19.98;5.40;;;;;;;6.12;39.00;99968.91;5072732;28;20063;-83
2022/05/01 01:48:19;;;;;;;13.32;6.07;;;;;;;6.14;39.06;99978.44;5055215;28;20130;-83
2022/05/01 01:50:55;;;;;;;14.73;5.60;;;;;;;6.10;38.83;99969.97;5061483;28;20095;-83
2022/05/01 01:53:22;;;;;;;15.98;5.53;;;;;;;6.17;38.88;99977.97;5058212;28;20053;-83
2022/05/01 01:55:48;;;;;;;13.30;5.63;;;;;;;6.20;38.73;99977.50;5070718;28;20139;-83
2022/05/01 01:58:15;;;;;;;14.90;5.72;;;;;;;6.12;38.79;99980.56;5046321;28;20044;-82
2022/05/01 02:00:41;;;;;;;16.75;5.68;;;;;;;6.03;39.22;99982.84;5080671;28;20055;-81
2022/05/01 02:03:07;;;;;;;22.35;5.95;;;;;;;5.91;39.37;99979.28;5038427;28;20062;-81
2022/05/01 02:05:36;;;;;;;17.77;6.18;;;;;;;5.94;39.14;99978.84;5053123;28;20542;-83
2022/05/01 02:08:05;;;;;;;14.18;5.50;;;;;;;6.00;39.29;99977.03;5074220;28;20044;-82
2022/05/01 02:10:33;;;;;;;14.90;5.93;;;;;;;5.75;39.72;99986.28;5054285;28;20098;-80
2022/05/01 02:13:02;;;;;;;15.50;5.80;;;;;;;5.56;39.82;99970.16;5038740;28;20040;-78
2022/05/01 02:15:33;;;;;;;15.60;5.55;;;;;;;5.60;39.91;99984.91;5079302;28;20106;-80
2022/05/01 02:18:00;;;;;;;16.02;5.50;;;;;;;5.60;40.06;99984.91;5067626;28;20043;-80
2022/05/01 02:21:33;;;;;;;14.10;5.70;;;;;;;5.66;39.88;99981.22;5072226;28;20087;-79
2022/05/01 02:23:15;;;;;;;16.25;5.45;;;;;;;5.60;39.79;99973.19;5035792;28;20044;-80
2022/05/01 02:25:42;;;;;;;19.33;6.03;;;;;;;5.72;39.58;99979.44;5068523;28;20047;-81
2022/05/01 02:28:08;;;;;;;18.75;6.47;;;;;;;5.77;39.76;99979.53;5048928;28;20139;-80
2022/05/01 02:30:34;;;;;;;19.25;6.78;;;;;;;5.85;39.73;99983.78;5036753;28;20102;-81
2022/05/01 02:33:01;;;;;;;17.05;6.65;;;;;;;5.90;39.72;99985.78;5074764;28;20072;-81
2022/05/01 02:35:27;;;;;;;19.42;6.70;;;;;;;5.74;39.64;99966.47;5069154;28;20078;-81
2022/05/01 02:37:53;;;;;;;23.30;7.07;;;;;;;5.86;39.85;99990.03;5078120;28;20048;-81
2022/05/01 02:40:20;;;;;;;18.95;6.30;;;;;;;5.86;39.80;99993.59;5031502;28;20056;-81
2022/05/01 02:42:47;;;;;;;16.13;5.55;;;;;;;5.76;40.00;99988.75;5075073;28;20420;-81
2022/05/01 02:45:13;;;;;;;19.15;6.60;;;;;;;5.74;40.12;99990.88;5065560;28;20045;-82
2022/05/01 02:47:39;;;;;;;15.93;6.45;;;;;;;5.72;40.27;99994.91;5087853;28;20131;-81
2022/05/01 02:50:07;;;;;;;17.25;7.10;;;;;;;5.76;40.10;99993.38;5073189;28;20057;-82
2022/05/01 02:52:34;;;;;;;;;;;;;;;5.70;40.19;99992.44;5091511;28;20138;-81
2022/05/01 02:55:00;;;;;;;20.02;6.88;;;;;;;5.84;39.77;99987.56;5069656;28;19972;-83
2022/05/01 02:57:26;;;;;;;15.30;5.55;;;;;;;5.67;40.13;99993.72;5079918;28;20040;-80
2022/05/01 02:59:53;;;;;;;15.90;6.50;;;;;;;5.80;39.88;99987.22;5083913;28;20138;-82
2022/05/01 03:02:21;;;;;;;16.67;6.78;;;;;;;5.85;39.76;100000.06;5073924;28;20048;-81
2022/05/01 03:04:47;;;;;;;19.10;5.88;;;;;;;5.97;39.76;99995.44;5079504;28;20080;-82
2022/05/01 03:07:15;;;;;;;18.10;6.40;;;;;;;5.89;39.72;99984.97;5083359;28;20052;-81
2022/05/01 03:09:41;;;;;;;13.23;5.97;;;;;;;5.97;39.65;99990.00;5072990;28;20048;-83
2022/05/01 03:12:08;;;;;;;15.95;5.72;;;;;;;5.90;39.86;99993.94;5074566;28;20070;-82
2022/05/01 03:14:35;;;;;;;14.45;6.53;;;;;;;5.91;39.83;99990.97;5088225;28;20040;-82
2022/05/01 03:17:03;;;;;;;15.13;6.18;;;;;;;5.92;40.05;99989.06;5087205;28;20048;-82
2022/05/01 03:22:14;;;;;;;14.98;6.55;;;;;;;6.04;39.80;99991.81;5058863;28;20049;-82
2022/05/01 03:24:42;;;;;;;17.88;5.93;;;;;;;5.91;40.30;99990.16;5074755;28;20071;-80
2022/05/01 03:27:10;;;;;;;17.38;5.85;;;;;;;6.06;39.79;100004.06;5091480;28;20055;-81
2022/05/01 03:29:37;;;;;;;17.20;6.82;;;;;;;6.21;39.30;99994.59;5068765;28;20044;-80
2022/05/01 03:32:07;;;;;;;14.40;4.90;;;;;;;6.15;39.23;100003.72;5063807;28;20094;-81
2022/05/01 03:34:37;;;;;;;16.63;6.20;;;;;;;6.08;39.43;99995.69;5054402;28;20040;-80
2022/05/01 03:37:06;;;;;;;16.42;5.88;;;;;;;6.15;39.37;100004.53;5084715;28;20504;-81
2022/05/01 03:39:33;;;;;;;16.48;6.00;;;;;;;6.21;39.46;100000.84;5055234;28;20048;-81
2022/05/01 03:41:59;;;;;;;15.57;6.05;;;;;;;6.18;39.49;100000.50;5048494;28;20093;-79
2022/05/01 03:44:25;;;;;;;15.85;5.32;;;;;;;6.22;39.49;99998.94;5074326;28;20058;-80
2022/05/01 03:46:52;;;;;;;11.50;4.88;;;;;;;6.33;39.10;99994.56;5069836;28;20036;-80
2022/05/01 03:49:18;;;;;;;14.98;5.05;;;;;;;6.44;39.07;100004.53;5060260;28;20102;-82
2022/05/01 03:51:46;;;;;;;14.80;5.30;;;;;;;6.46;38.89;100004.31;5069701;28;20062;-82
2022/05/01 03:54:13;;;;;;;17.13;5.15;;;;;;;6.43;38.87;100002.91;5073051;28;20048;-79
2022/05/01 03:56:39;;;;;;;18.20;4.78;;;;;;;6.55;38.72;100002.03;5090512;28;20047;-81
2022/05/01 03:59:05;;;;;;;15.23;5.03;;;;;;;6.59;38.70;100004.03;5087320;28;20135;-81
2022/05/01 04:01:33;;;;;;;16.55;5.85;;;;;;;6.69;38.46;100008.81;5056739;28;20075;-82
2022/05/01 04:04:00;;;;;;;13.30;4.75;;;;;;;6.67;38.52;100014.47;5055918;28;20078;-80
2022/05/01 04:06:27;;;;;;;19.33;5.82;;;;;;;6.72;38.42;100005.59;5060966;28;20048;-81
2022/05/01 04:08:53;;;;;;;14.45;4.90;;;;;;;6.79;38.35;100009.00;5055255;28;20051;-81
2022/05/01 04:11:20;;;;;;;15.95;4.97;;;;;;;6.90;37.98;100010.00;5079080;28;20501;-81
2022/05/01 04:13:48;;;;;;;14.80;4.97;;;;;;;6.83;38.30;100005.81;5055248;28;20040;-81
2022/05/01 04:16:14;;;;;;;15.30;5.90;;;;;;;6.83;38.39;100009.31;5053143;28;20082;-79
2022/05/01 04:18:40;;;;;;;14.55;5.38;;;;;;;6.76;38.45;100003.25;5041186;28;20066;-80
2022/05/01 04:21:07;;;;;;;17.48;4.80;;;;;;;6.84;38.18;100005.53;5074056;28;20048;-79
2022/05/01 04:23:34;;;;;;;12.80;5.25;;;;;;;6.86;38.01;100008.84;5084840;28;20147;-79
2022/05/01 04:26:00;;;;;;;15.63;5.10;;;;;;;6.88;37.84;100005.88;5072427;28;20423;-80
2022/05/01 04:28:27;;;;;;;13.18;5.20;;;;;;;7.05;37.81;100003.19;5068018;28;20055;-81
2022/05/01 04:30:54;;;;;;;16.85;5.13;;;;;;;6.96;37.74;100002.78;5057097;28;20063;-81
2022/05/01 04:33:20;;;;;;;15.02;4.97;;;;;;;6.86;37.84;99995.25;5065645;28;20097;-81
2022/05/01 04:35:51;;;;;;;13.38;5.43;;;;;;;7.00;37.84;99993.06;5082805;28;20081;-81
2022/05/01 04:38:23;;;;;;;20.15;5.63;;;;;;;7.21;37.61;100012.41;5041551;28;20625;-79
2022/05/01 04:40:52;;;;;;;15.45;5.47;;;;;;;7.06;37.74;100002.94;5063722;28;20053;-81
2022/05/01 04:43:21;;;;;;;14.88;6.47;;;;;;;7.03;37.79;99995.28;5069587;28;20048;-82
2022/05/01 04:45:48;;;;;;;13.55;5.05;;;;;;;7.29;37.47;100008.44;5066608;28;20048;-81
2022/05/01 04:48:15;;;;;;;20.90;5.65;;;;;;;7.24;37.57;100009.19;5061900;28;20052;-82
2022/05/01 04:50:41;;;;;;;18.20;6.07;;;;;;;7.23;37.91;100002.94;5072547;28;20056;-78
2022/05/01 04:53:10;;;;;;;18.27;5.07;;;;;;;7.15;37.92;100005.25;5082657;28;20051;-79
2022/05/01 04:55:37;;;;;;;14.32;6.03;;;;;;;7.27;37.83;100010.59;5064662;28;20060;-80
2022/05/01 04:58:04;;;;;;;16.58;6.85;;;;;;;7.23;38.30;100008.38;5083557;28;20082;-80
2022/05/01 05:00:31;;;;;;;16.30;6.45;;;;;;;7.33;38.03;99991.41;5052475;28;20057;-79
2022/05/01 05:02:57;;;;;;;16.70;6.15;;;;;;;7.45;38.02;100006.81;5062990;28;20056;-81
2022/05/01 05:05:29;;;;;;;13.70;5.55;;;;;;;7.50;38.04;100001.44;5041408;28;20078;-82
2022/05/01 05:07:56;;;;;;;16.42;4.95;;;;;;;7.62;38.00;100015.78;5066029;28;20139;-82
2022/05/01 05:10:22;;;;;;;13.15;4.78;;;;;;;7.47;37.63;99986.41;5077586;28;20172;-80
2022/05/01 05:12:49;;;;;;;11.15;3.65;;;;;;;7.56;37.30;100008.59;5077668;28;20394;-80
2022/05/01 05:15:20;;;;;;;12.15;4.18;;;;;;;7.69;37.01;100015.59;5078017;28;20047;-80
2022/05/01 05:17:47;;;;;;;14.88;3.08;;;;;;;7.51;35.99;99998.47;5067951;28;20071;-79
2022/05/01 05:20:13;;;;;;;12.13;3.58;;;;;;;7.66;36.09;100006.03;5048116;28;20071;-81
2022/05/01 05:22:40;;;;;;;9.95;3.58;;;;;;;7.55;36.52;100006.94;5077134;28;20531;-80
2022/05/01 05:25:10;;;;;;;11.43;3.90;;;;;;;7.62;36.29;100014.94;5090382;28;20052;-81
2022/05/01 05:27:37;;;;;;;11.77;3.67;;;;;;;7.51;36.15;100011.25;5039765;28;20401;-79
2022/05/01 05:30:05;;;;;;;21.27;3.90;;;;;;;7.49;35.64;100014.22;5051261;28;20101;-79
2022/05/01 05:32:31;;;;;;;15.40;4.10;;;;;;;7.54;35.82;100005.28;5042229;28;20055;-80
2022/05/01 05:34:58;;;;;;;16.33;4.78;;;;;;;7.57;35.80;100004.81;5059256;28;20121;-80
2022/05/01 05:37:24;;;;;;;13.43;4.13;;;;;;;7.57;35.65;99987.66;5085175;28;20052;-80
2022/05/01 05:39:50;;;;;;;10.07;4.13;;;;;;;7.75;35.33;99992.81;5090545;28;20515;-78
2022/05/01 05:42:19;;;;;;;8.20;3.47;;;;;;;7.88;35.05;99996.25;5082060;28;20060;-81
2022/05/01 05:44:45;;;;;;;7.82;2.85;;;;;;;7.96;34.51;99993.09;5042221;28;20482;-78
2022/05/01 05:47:13;;;;;;;14.27;2.90;;;;;;;7.72;33.99;99968.81;5061577;28;20146;-81
2022/05/01 05:49:40;;;;;;;;;;;;;;;8.00;34.13;99991.50;5080148;28;20044;-79
2022/05/01 05:52:07;;;;;;;8.40;2.65;;;;;;;8.07;34.10;99994.84;5083935;28;20245;-80
2022/05/01 05:54:45;;;;;;;7.72;2.80;;;;;;;8.19;33.77;99997.44;5089731;28;20428;-79
2022/05/01 05:57:11;;;;;;;10.15;2.67;;;;;;;8.21;33.70;99983.56;5031762;28;20052;-78
2022/05/01 05:59:37;;;;;;;7.15;2.50;;;;;;;8.32;33.59;99990.81;5076176;28;20052;-79
2022/05/01 06:02:04;;;;;;;6.97;2.35;;;;;;;8.42;33.36;99995.53;5067212;28;20411;-79
2022/05/01 06:04:30;;;;;;;7.20;2.10;;;;;;;8.37;33.44;99996.28;5086241;28;20588;-79
2022/05/01 06:06:57;;;;;;;7.03;1.77;;;;;;;8.44;33.33;99996.09;5090731;28;20052;-79
2022/05/01 06:09:28;;;;;;;4.20;1.67;;;;;;;8.51;33.29;100002.22;5064804;28;20047;-78
2022/05/01 06:11:54;;;;;;;5.13;1.60;;;;;;;8.55;32.61;100004.44;5071554;28;20052;-79
2022/05/01 06:14:20;;;;;;;6.53;1.75;;;;;;;8.47;32.69;99990.13;5086217;28;20037;-78
2022/05/01 06:16:46;;;;;;;7.03;1.90;;;;;;;8.53;32.92;99990.22;5078390;28;20046;-77
2022/05/01 06:19:13;;;;;;;7.75;1.88;;;;;;;8.64;33.03;99989.25;5072617;28;20068;-77
2022/05/01 06:21:39;;;;;;;7.15;2.22;;;;;;;8.51;32.87;99987.75;5088657;28;20100;-78
2022/05/01 06:24:08;;;;;;;6.97;2.17;;;;;;;8.53;32.65;99984.78;5025896;28;20051;-77
2022/05/01 06:26:35;;;;;;;4.65;1.80;;;;;;;8.67;32.77;99987.91;5051545;28;20086;-78
2022/05/01 06:29:04;;;;;;;9.07;2.25;;;;;;;8.40;33.48;99934.19;5087014;28;20040;-78
2022/05/01 06:31:55;;;;;;;6.55;2.25;;;;;;;8.85;33.30;99982.09;5076330;28;20100;-78
2022/05/01 06:34:36;;;;;;;7.85;1.98;;;;;;;8.94;32.92;99987.88;5056683;28;20094;-81
2022/05/01 06:37:04;;;;;;;6.78;2.08;;;;;;;8.26;32.52;99925.63;5070300;28;20047;-78
2022/05/01 06:39:41;;;;;;;8.18;2.13;;;;;;;8.75;32.59;99982.81;5066169;28;20127;-80
2022/05/01 06:42:11;;;;;;;7.15;2.40;;;;;;;8.66;32.98;99940.72;5064632;28;20109;-79
2022/05/01 06:45:13;;;;;;;7.15;2.17;;;;;;;8.76;32.15;99956.38;5077640;28;20512;-79
2022/05/01 06:51:10;;;;;;;7.65;2.05;;;;;;;8.55;32.15;99912.56;5043334;28;20075;-76
2022/05/01 06:53:39;;;;;;;6.20;2.20;;;;;;;9.03;31.99;99963.69;5088002;28;20479;-78
2022/05/01 06:56:11;;;;;;;5.70;2.10;;;;;;;9.09;32.27;99965.38;5080540;28;20453;-77
2022/05/01 06:58:43;;;;;;;6.32;2.20;;;;;;;9.02;32.29;99932.03;5088140;23;20375;-77
2022/05/01 07:01:57;;;;;;;8.77;2.25;;;;;;;9.41;32.19;99953.59;5073116;28;20474;-80
2022/05/01 07:04:40;;;;;;;9.93;2.75;;;;;;;9.48;32.02;99950.66;5035944;28;20048;-76
2022/05/01 07:07:18;;;;;;;8.18;2.20;;;;;;;9.43;32.21;99940.50;5033795;28;20453;-78
2022/05/01 07:09:44;;;;;;;4.75;1.83;;;;;;;9.43;31.61;99928.75;5053341;28;20049;-77
2022/05/01 07:12:12;;;;;;;8.32;2.15;;;;;;;9.51;31.50;99975.47;5024068;28;20125;-77
2022/05/01 07:14:38;;;;;;;5.78;2.10;;;;;;;9.54;31.62;99967.88;5049780;28;20075;-76
2022/05/01 07:17:04;;;;;;;21.00;2.97;;;;;;;9.56;31.46;99952.88;5042280;28;20594;-77
2022/05/01 07:19:30;;;;;;;7.03;1.95;;;;;;;9.50;31.83;99930.16;5014531;28;20072;-77
2022/05/01 07:22:30;;;;;;;5.80;2.10;;;;;;;9.65;31.99;99932.19;5018272;28;20103;-76
2022/05/01 07:25:23;;;;;;;7.28;2.20;;;;;;;9.74;32.06;99932.50;4971806;28;20161;-77
2022/05/01 07:28:06;;;;;;;6.90;1.92;;;;;;;9.84;31.56;99942.63;5052791;28;20053;-76
2022/05/01 07:30:35;;;;;;;6.00;2.17;;;;;;;9.88;31.69;99935.53;5031889;28;20148;-77
2022/05/01 07:37:26;;;;;;;7.50;1.95;;;;;;;10.06;30.99;99942.44;4926042;29;20067;-78
2022/05/01 07:39:55;;;;;;;8.45;2.30;;;;;;;10.11;30.97;99930.72;4961022;28;20467;-74
2022/05/01 07:42:42;;;;;;;5.78;2.25;;;;;;;10.25;31.30;99927.47;5042745;28;20049;-75
2022/05/01 07:45:39;;;;;;;8.25;2.25;;;;;;;10.44;31.69;99928.63;4952596;28;20594;-81
2022/05/01 07:48:11;;;;;;;7.20;2.10;;;;;;;10.57;31.21;99934.69;5015190;28;20056;-79
2022/05/01 07:50:53;;;;;;;7.80;2.10;;;;;;;10.60;31.05;99926.72;5029530;28;20055;-76
2022/05/01 07:53:19;;;;;;;6.07;2.03;;;;;;;10.68;31.05;99921.84;4975252;28;20054;-76
2022/05/01 07:59:47;;;;;;;11.48;2.58;;;;;;;10.94;31.46;99887.09;5063275;22;20045;-77
2022/05/01 08:04:27;;;;;;;10.82;2.70;;;;;;;10.88;31.37;99858.91;5052696;28;20049;-79
2022/05/01 08:05:27;;;;;;;10.13;2.20;;;;;;;11.33;31.84;99913.84;5034658;28;20143;-81
2022/05/01 08:08:15;;;;;;;8.70;2.10;;;;;;;11.28;32.14;99893.88;5051205;28;20075;-78
2022/05/01 08:10:41;;;;;;;8.30;2.10;;;;;;;11.31;32.49;99885.13;5024112;28;20048;-80
2022/05/01 08:17:05;;;;;;;11.93;3.47;;;;;;;11.17;30.92;99827.41;5000798;28;20034;-80
2022/05/01 08:22:41;;;;;;;10.48;2.17;;;;;;;11.33;29.36;99869.22;5014356;28;20050;-79
2022/05/01 08:25:50;;;;;;;8.18;2.40;;;;;;;11.54;28.87;99896.53;5049431;28;20108;-81
2022/05/01 08:29:07;;;;;;;8.88;2.35;;;;;;;11.51;29.24;99873.28;5045325;28;20047;-80
2022/05/01 08:31:36;;;;;;;5.50;2.08;;;;;;;11.50;28.95;99841.53;5050626;28;20437;-79
2022/05/01 08:35:05;;;;;;;10.15;2.22;;;;;;;11.77;28.79;99901.38;5047226;28;20045;-80
2022/05/01 08:38:20;;;;;;;5.90;2.20;;;;;;;11.51;28.78;99854.13;5036865;28;20056;-77
2022/05/01 08:40:53;;;;;;;15.23;2.90;;;;;;;11.40;27.95;99847.03;5022660;28;20045;-77
2022/05/01 08:43:28;;;;;;;8.45;2.63;;;;;;;11.44;28.28;99848.09;5016721;28;20041;-78
2022/05/01 08:51:16;;;;;;;8.80;2.80;;;;;;;11.86;27.71;99852.31;5026436;28;20121;-78
2022/05/01 08:54:33;;;;;;;13.10;2.50;;;;;;;11.11;27.93;99790.19;5022967;28;20452;-78
2022/05/01 08:58:06;;;;;;;16.13;2.80;;;;;;;11.39;28.42;99807.88;5029195;28;20204;-78
2022/05/01 09:00:54;;;;;;;12.43;2.60;;;;;;;11.78;28.07;99861.09;5028910;28;20061;-77
2022/05/01 09:03:24;;;;;;;10.25;3.13;;;;;;;11.65;27.33;99826.13;4995979;28;20053;-78
2022/05/01 09:05:51;;;;;;;8.95;2.10;;;;;;;11.95;27.60;99855.28;5009720;28;20068;-79
2022/05/01 09:08:17;;;;;;;8.90;2.35;;;;;;;12.09;26.99;99865.66;5026430;28;20536;-79
2022/05/01 09:10:45;;;;;;;10.93;2.38;;;;;;;12.11;26.89;99860.69;5028069;28;20045;-79
2022/05/01 09:13:11;;;;;;;8.40;2.53;;;;;;;12.14;26.71;99830.81;5010639;28;20623;-79
2022/05/01 09:15:41;;;;;;;8.05;2.58;;;;;;;12.21;26.80;99819.53;5010532;28;20049;-78
2022/05/01 09:18:09;;;;;;;10.60;2.53;;;;;;;12.46;26.77;99837.69;5021199;28;20063;-77
2022/05/01 09:20:39;;;;;;;;;;;;;;;12.65;26.88;99822.47;5000115;28;20435;-78
2022/05/01 09:23:06;;;;;;;8.23;2.40;;;;;;;12.88;27.41;99816.19;4989770;28;19981;-76
2022/05/01 09:25:33;;;;;;;10.73;2.80;;;;;;;13.02;27.35;99810.03;5027420;28;20122;-77
2022/05/01 09:28:18;;;;;;;9.35;2.53;;;;;;;13.33;27.21;99815.16;5036540;28;20314;-78
2022/05/01 09:30:45;;;;;;;6.70;2.22;;;;;;;13.56;27.17;99827.28;5029590;28;20053;-77
2022/05/01 09:33:19;;;;;;;11.37;2.80;;;;;;;13.54;27.02;99804.78;5033994;28;20080;-78
2022/05/01 09:35:45;;;;;;;13.55;3.35;;;;;;;13.83;26.81;99811.25;5046383;28;20311;-76
2022/05/01 09:38:17;;;;;;;12.70;2.90;;;;;;;13.98;26.72;99816.53;5048959;28;20053;-77
2022/05/01 09:40:46;;;;;;;9.52;2.97;;;;;;;13.98;26.15;99822.03;5000432;28;20053;-76
2022/05/01 09:43:37;;;;;;;5.93;2.17;;;;;;;14.17;26.42;99799.22;5018335;28;20053;-76
2022/05/01 09:46:33;;;;;;;9.25;3.00;;;;;;;14.19;26.61;99774.97;5057347;28;20118;-76
2022/05/01 09:49:02;;;;;;;9.20;2.90;;;;;;;14.50;26.18;99821.22;5035238;28;20508;-75
2022/05/01 09:52:23;;;;;;;7.47;2.33;;;;;;;14.12;24.92;99789.09;5018780;28;20079;-77
2022/05/01 09:55:07;;;;;;;10.20;3.10;;;;;;;13.83;26.07;99778.28;4973086;28;20052;-74
2022/05/01 09:57:46;;;;;;;11.00;2.80;;;;;;;13.99;26.66;99795.38;5019597;28;20421;-73
2022/05/01 10:00:48;;;;;;;10.38;2.60;;;;;;;13.52;25.41;99776.78;5047534;28;20102;-78
2022/05/01 10:03:55;;;;;;;9.65;2.88;;;;;;;13.22;26.13;99714.81;5005388;28;20048;-76
2022/05/01 10:11:13;;;;;;;7.55;2.83;;;;;;;13.65;28.61;99761.50;4951100;28;20043;-76
2022/05/01 10:14:03;;;;;;;;;;;;;;;13.93;28.79;99785.56;5019247;23;20060;-79
2022/05/01 10:17:06;;;;;;;8.73;2.53;;;;;;;13.47;28.20;99703.53;5043814;28;20320;-76
2022/05/01 10:21:17;;;;;;;15.27;3.65;;;;;;;13.51;28.36;99702.91;4938628;28;20054;-76
2022/05/01 10:24:03;;;;;;;10.18;2.90;;;;;;;13.67;27.98;99723.56;5023838;28;20060;-77
2022/05/01 10:26:37;;;;;;;9.27;2.65;;;;;;;13.81;27.70;99745.59;5016844;28;20136;-77
2022/05/01 10:29:35;;;;;;;8.15;2.95;;;;;;;13.94;27.93;99770.69;4995581;28;20078;-83
2022/05/01 10:33:00;;;;;;;11.13;2.97;;;;;;;13.89;27.77;99772.41;5020414;28;20903;-81
2022/05/01 10:35:45;;;;;;;8.70;2.67;;;;;;;13.87;28.19;99769.16;5016542;28;20046;-79
2022/05/01 10:38:26;;;;;;;9.38;3.03;;;;;;;13.40;28.35;99696.72;4973533;28;20415;-78
2022/05/01 10:40:59;;;;;;;8.43;2.83;;;;;;;13.69;28.32;99731.50;5027827;28;20257;-78
2022/05/01 10:43:30;;;;;;;7.65;2.50;;;;;;;13.71;28.42;99726.53;5007193;28;20054;-80
2022/05/01 10:46:55;;;;;;;13.30;3.03;;;;;;;13.94;27.90;99756.97;5013992;28;20049;-78
2022/05/01 10:50:12;;;;;;;;;;;;;;;14.18;28.31;99748.59;4967179;28;20052;-80
2022/05/01 10:53:05;;;;;;;7.35;2.60;;;;;;;13.98;27.55;99714.84;5015547;28;20290;-79
2022/05/01 10:56:28;;;;;;;;;;;;;;;;;;;;;
2022/05/01 10:59:35;;;;;;;10.65;2.47;;;;;;;13.79;27.10;99689.31;5004274;28;20053;-79
2022/05/01 11:02:06;;;;;;;8.18;2.83;;;;;;;13.83;26.64;99701.34;5018708;28;20049;-76
2022/05/01 11:04:42;;;;;;;10.50;2.65;;;;;;;13.88;25.93;99721.31;5015314;28;20409;-81
2022/05/01 11:07:19;;;;;;;10.85;2.58;;;;;;;13.47;26.43;99662.31;5004081;28;20475;-81
2022/05/01 11:09:50;;;;;;;9.27;2.75;;;;;;;13.49;25.89;99681.22;5012222;28;20100;-70
2022/05/01 11:12:19;;;;;;;9.65;2.65;;;;;;;13.72;25.54;99709.72;4996990;28;20498;-72
2022/05/01 11:14:54;;;;;;;8.93;2.67;;;;;;;13.60;25.22;99714.88;5018830;28;20049;-71
2022/05/01 11:17:54;;;;;;;11.27;2.55;;;;;;;13.69;24.75;99712.28;5015661;28;20179;-70
2022/05/01 11:20:32;;;;;;;8.35;2.63;;;;;;;13.95;24.75;99706.38;5018894;28;20383;-73
2022/05/01 11:23:14;;;;;;;10.38;3.00;;;;;;;14.33;24.51;99709.03;5006162;28;20486;-72
2022/05/01 11:25:47;;;;;;;11.00;2.80;;;;;;;14.79;24.48;99715.63;5001528;28;20433;-74
2022/05/01 11:28:47;;;;;;;7.07;2.50;;;;;;;15.23;24.22;99707.06;5030607;28;20053;-72
2022/05/01 11:31:44;;;;;;;9.15;2.97;;;;;;;15.52;24.02;99703.91;5014698;28;20046;-72
2022/05/01 11:34:48;;;;;;;8.77;2.80;;;;;;;15.36;22.61;99719.16;4997810;28;20049;-73
2022/05/01 11:37:18;;;;;;;9.15;2.47;;;;;;;15.09;22.48;99709.84;4983061;28;20064;-72
2022/05/01 11:40:27;;;;;;;7.43;2.60;;;;;;;15.28;22.37;99707.75;5014302;28;20053;-71
2022/05/01 11:43:15;;;;;;;7.95;2.83;;;;;;;15.25;22.32;99699.28;5011637;28;20049;-69
2022/05/01 11:45:42;;;;;;;10.60;2.70;;;;;;;14.88;22.57;99694.53;4993949;28;20120;-70
2022/05/01 11:48:12;;;;;;;8.68;3.08;;;;;;;14.78;23.04;99692.00;5023992;28;20045;-70
2022/05/01 11:50:39;;;;;;;8.10;2.72;;;;;;;14.70;23.20;99687.19;5000274;28;20045;-69
2022/05/01 11:53:16;;;;;;;9.25;3.10;;;;;;;14.47;23.00;99681.53;5017147;28;20053;-71
2022/05/01 12:04:17;;;;;;;9.82;2.83;;;;;;;14.86;23.45;99668.44;5023738;28;20507;-69
2022/05/01 12:06:43;;;;;;;9.35;2.83;;;;;;;14.69;23.23;99677.31;5012804;28;20048;-68
2022/05/01 12:09:09;;;;;;;9.00;3.00;;;;;;;14.58;23.21;99666.47;5013135;28;20061;-68
2022/05/01 12:11:35;;;;;;;8.60;2.78;;;;;;;14.49;23.26;99662.81;5018688;28;20045;-73
2022/05/01 12:14:05;;;;;;;9.45;3.22;;;;;;;14.25;22.78;99673.97;4997859;28;20533;-71
2022/05/01 12:16:33;;;;;;;9.63;2.72;;;;;;;14.07;23.03;99667.44;4996249;28;20145;-70
2022/05/01 12:18:59;;;;;;;8.07;2.80;;;;;;;14.18;23.10;99660.63;5014404;28;20425;-74
2022/05/01 12:21:29;;;;;;;8.75;2.60;;;;;;;14.36;23.06;99660.84;5021998;28;20057;-72
2022/05/01 12:24:02;;;;;;;9.73;3.20;;;;;;;14.37;23.26;99657.81;5029474;28;20049;-72
2022/05/01 12:26:30;;;;;;;12.77;2.90;;;;;;;14.38;23.55;99658.63;4983392;28;20062;-71
2022/05/01 12:28:57;;;;;;;8.57;3.15;;;;;;;14.28;23.82;99640.38;5003714;28;20056;-71
2022/05/01 12:31:24;;;;;;;8.60;2.72;;;;;;;14.40;23.69;99643.44;5003518;28;20068;-70
2022/05/01 12:33:52;;;;;;;11.30;3.15;;;;;;;14.86;23.10;99640.91;5028005;28;20111;-71
2022/05/01 12:36:24;;;;;;;15.30;3.55;;;;;;;15.21;22.69;99640.47;5001095;28;20383;-70
2022/05/01 12:39:00;;;;;;;9.52;3.08;;;;;;;15.33;22.72;99626.97;5012031;28;20045;-69
2022/05/01 12:44:12;;;;;;;13.80;2.80;;;;;;;15.23;23.02;99638.19;4999455;28;20045;-70
2022/05/01 12:46:50;;;;;;;12.67;2.80;;;;;;;15.57;21.88;99639.63;5017856;28;20144;-70
2022/05/01 12:49:24;;;;;;;10.50;2.67;;;;;;;16.23;21.62;99617.00;5025186;28;20046;-69
2022/05/01 12:51:50;;;;;;;10.85;2.58;;;;;;;16.35;21.58;99630.25;5028643;28;20049;-69
2022/05/01 12:54:17;;;;;;;8.10;2.67;;;;;;;15.88;21.43;99614.88;5000777;28;20473;-70